Chickering American River Reserve, California Weather observations

Data are for 10 minute period ending at time listed.
 Day   Time   Solar   Ave.   Ave.  Ave.  Vector  Max.   Baro.   Total    
  of    of     Rad.   Air    Rel.  Wind   Wind   Wind  Press.  Precip.   
Year   Day            Temp.  Hum.  Speed  Dir.   Gust                    
2026   (PST)  Kw/m2    F      %     mph   deg.    mph    mb.     in.     
-------------------------------------------------------------------------
 123    1:10   0.00   52.2    55    1.8    62     6.1   815.9    0.00 
 123    1:20   0.00   52.0    55    1.7    65     5.9   815.8    0.00 
 123    1:30   0.00   52.1    54    1.8    48     6.3   815.7    0.00 
 123    1:40   0.00   52.4    53    2.7    54     8.3   815.6    0.00 
 123    1:50   0.00   52.6    52    3.6    57    10.4   815.5    0.00 
 123    2:00   0.00   52.6    52    3.1    64     9.8   815.5    0.00 
 123    2:10   0.00   52.0    54    3.0    52     9.0   815.5    0.00 
 123    2:20   0.00   51.4    56    2.6    53     7.5   815.5    0.00 
 123    2:30   0.00   50.6    58    2.0    51     5.6   815.5    0.00 
 123    2:40   0.00   50.9    55    1.9    44     6.1   815.4    0.00 
 123    2:50   0.00   51.4    53    3.4    46     8.7   815.3    0.00 
 123    3:00   0.00   51.4    54    2.3    63     7.2   815.3    0.00 
 123    3:10   0.00   51.0    55    2.3    35     6.3   815.3    0.00 
 123    3:20   0.00   50.2    58    2.0    36     4.0   815.2    0.00 
 123    3:30   0.00   49.8    58    3.2    52    10.4   815.3    0.00 
 123    3:40   0.00   50.5    56    3.2    51    12.9   815.2    0.00 
 123    3:50   0.00   50.3    55    2.6    50     6.9   815.1    0.00 
 123    4:00   0.00   50.2    55    2.1    48     6.7   815.1    0.00 
 123    4:10   0.00   50.5    53    3.2    50     7.4   815.0    0.00 
 123    4:20   0.00   50.6    53    2.3    52     4.9   815.0    0.00 
 123    4:30   0.00   49.8    55    2.2    54     4.8   815.0    0.00 
 123    4:40   0.00   48.9    57    2.8    56     6.1   814.9    0.00 
 123    4:50   0.00   48.8    56    2.3    55     4.8   814.9    0.00 
 123    5:00   0.00   48.9    56    1.9    59     5.3   814.9    0.00 
 123    5:10   0.00   48.9    56    1.9    59     5.8   814.8    0.00 
 123    5:20   0.01   48.7    56    2.0    51     4.7   814.9    0.00 
 123    5:30   0.02   48.9    55    2.3    56     6.8   814.9    0.00 
 123    5:40   0.03   49.3    54    2.4    48     5.3   814.8    0.00 
 123    5:50   0.04   49.9    53    2.9    51     6.9   814.9    0.00 
 123    6:00   0.05   50.4    52    2.6    44     6.4   814.9    0.00 
 123    6:10   0.06   50.3    54    2.2    41     5.3   814.9    0.00 
 123    6:20   0.07   50.6    54    2.2    46     6.5   814.9    0.00 
 123    6:30   0.09   50.8    54    2.2    44     4.5   814.9    0.00 
 123    6:40   0.11   51.5    52    2.9    45     9.7   814.9    0.00 
 123    6:50   0.12   52.1    52    1.8    49     6.1   814.9    0.00 
 123    7:00   0.14   52.7    50    2.4    56     8.0   814.9    0.00 
 123    7:10   0.17   53.6    48    2.6    88    12.0   814.9    0.00 
 123    7:20   0.20   54.5    47    1.9    58     9.9   814.9    0.00 
 123    7:30   0.21   55.0    46    3.0    61     9.7   814.9    0.00 
 123    7:40   0.23   55.1    49    2.7    51     6.5   814.9    0.00 
 123    7:50   0.13   55.8    46    3.1    57     8.5   814.9    0.00 
 123    8:00   0.10   56.6    46    2.1    64     5.9   814.9    0.00 
 123    8:10   0.04   57.1    43    1.9    86     6.4   814.9    0.00 
 123    8:20   0.03   57.2    45    1.9    61     8.4   814.9    0.00 
 123    8:30   0.03   57.3    46    1.7    41     4.2   814.8    0.00 
 123    8:40   0.03   57.6    45    1.7    45     6.0   814.8    0.00 
 123    8:50   0.03   57.7    44    1.9    32     5.2   814.9    0.00 
 123    9:00   0.03   57.8    43    1.6    40     5.0   815.0    0.00 
 123    9:10   0.03   58.4    44    1.0     7     3.7   815.0    0.00 
 123    9:20   0.03   59.2    42    0.9   276     5.3   815.0    0.00 
 123    9:30   0.03   59.4    41    1.0   302     3.8   815.0    0.00 
 123    9:40   0.02   59.6    42    1.2    32     3.5   815.1    0.00 
 123    9:50   0.03   60.0    40    2.3     5     6.8   815.0    0.00 
 123   10:00   0.05   60.6    39    0.9   352     3.4   814.9    0.00 
 123   10:10   0.04   61.2    39    1.2    11     5.1   814.9    0.00 
 123   10:20   0.04   61.2    45    1.5    12     4.8   814.9    0.00 
 123   10:30   0.28   60.8    48    2.4    19     5.2   814.9    0.00 
 123   10:40   0.55   62.4    46    2.2    24     7.0   814.8    0.00 
 123   10:50   0.90   63.0    43    2.3     6     8.2   814.7    0.00 
 123   11:00   0.50   62.2    43    1.8   344     4.8   814.6    0.00 
 123   11:10   0.27   60.7    46    1.7    30     5.9   814.5    0.00 
 123   11:20   0.44   60.4    45    1.7   228     6.7   814.5    0.00 
 123   11:30   0.56   60.1    46    1.5    99     5.8   814.4    0.00 
 123   11:40   0.59   60.2    46    1.3   112     7.2   814.3    0.00 
 123   11:50   0.43   60.5    46    2.1   156     7.3   814.3    0.00 
 123   12:00   0.30   59.8    50    1.7    85     7.2   814.4    0.00 
 123   12:10   0.19   58.6    52    1.5   122     5.0   814.5    0.00 
 123   12:20   0.05   58.6    53    1.6   160     4.5   814.8    0.00 
 123   12:30   0.06   57.3    58    2.3   164     7.7   814.8    0.00 
 123   12:40   0.17   56.4    59    1.9   166     6.0   814.8    0.00 
 123   12:50   0.24   56.3    57    1.7   166     5.1   814.8    0.00 
 123   13:00   0.10   55.1    52    2.4   177     9.4   814.8    0.00 
 123   13:10   0.12   51.7    59    2.5   178     6.9   815.1    0.00 
 123   13:20   0.14   48.7    75    1.4   215     9.6   815.2    0.00 
 123   13:30   0.03   47.0    84    0.5   321     2.3   815.6    0.00 
 123   13:40   0.01   46.0    85    1.6    71    11.7   816.1    0.00 
 123   13:50   0.01   45.3    79    1.0   192     4.2   816.1    0.00 
 123   14:00   0.01   44.4    85    1.7   209    15.0   816.2    0.00 
 123   14:10   0.03   43.8    88    0.5     0     2.1   816.2    0.00 
 123   14:20   0.08   43.7    92    0.6   172     3.1   816.4    0.00 
 123   14:30   0.06   44.2    91    0.7   177     3.1   816.6    0.00 
 123   14:40   0.01   44.3    91    0.9    81     5.9   817.0    0.00 
 123   14:50   0.01   44.2    82    2.0   180     6.9   817.2    0.00 
 123   15:00   0.03   43.0    85    1.8   174     5.8   817.2    0.00 
 123   15:10   0.08   42.2    92    0.6   336     2.4   816.7    0.00 
 123   15:20   0.10   42.5    94    1.3    45     4.5   816.5    0.00 
 123   15:30   0.06   42.7    89    0.5   218     2.8   816.2    0.00 
 123   15:40   0.07   42.9    93    0.1   274     1.2   816.3    0.00 
 123   15:50   0.03   43.1    93    0.4   224     2.0   816.4    0.00 
 123   16:00   0.06   43.4    94    0.1   234     1.9   816.5    0.00 
 123   16:10   0.09   43.7    94    0.3    52     2.0   816.0    0.00 
 123   16:20   0.11   44.0    91    0.1   254     1.2   815.3    0.00 
 123   16:30   0.14   44.3    90    0.6   213     2.8   814.7    0.00 
 123   16:40   0.17   44.8    91    1.1   212     3.3   814.7    0.00 
 123   16:50   0.14   45.1    89    0.3   207     1.5   814.7    0.00 
 123   17:00   0.10   44.8    91    0.2   322     1.2   814.8    0.00 
 123   17:10   0.09   44.9    89    0.1   302     1.1   814.8    0.00 
 123   17:20   0.11   44.7    91    0.1   293     0.6   814.8    0.00 
 123   17:30   0.12   45.1    90    0.0     0     0.0   814.7    0.00 
 123   17:40   0.09   45.3    89    0.4   230     1.6   814.5    0.00 
 123   17:50   0.07   45.2    91    0.8   216     1.7   814.2    0.00 
 123   18:00   0.07   45.2    91    0.1   216     0.7   814.2    0.00 
 123   18:10   0.07   45.4    93    0.1   215     1.7   814.5    0.00 
 123   18:20   0.06   45.4    86    1.9    43     8.0   814.7    0.00 
 123   18:30   0.06   45.2    84    1.5    39     7.3   814.7    0.00 
 123   18:40   0.04   44.7    86    0.5    14     2.6   814.6    0.00 
 123   18:50   0.01   44.1    90    1.0   231     2.7   814.6    0.00 
 123   19:00   0.00   43.8    91    0.6   236     2.6   814.6    0.00 
 123   19:10   0.00   43.4    92    0.7   208     2.2   814.5    0.00 
 123   19:20   0.00   43.1    94    1.5   237     2.1   814.5    0.00 
 123   19:30   0.00   43.1    94    0.9   237     2.2   814.6    0.00 
 123   19:40   0.00   42.7    94    0.4   204     1.5   814.6    0.00 
 123   19:50   0.00   42.2    94    1.0   226     1.8   814.8    0.00 
 123   20:00   0.00   42.1    94    0.9   199     1.4   814.8    0.00 
 123   20:10   0.00   41.7    94    0.4   192     1.4   814.8    0.00 
 123   20:20   0.00   41.5    94    0.3   194     1.2   814.8    0.00 
 123   20:30   0.00   41.3    94    0.2   181     1.2   814.8    0.00 
 123   20:40   0.00   41.1    94    0.4   182     1.1   814.9    0.00 
 123   20:50   0.00   40.9    94    0.3   198     1.3   815.0    0.00 
 123   21:00   0.00   40.6    95    0.5   196     1.3   815.1    0.00 
 123   21:10   0.00   40.3    95    0.8   244     2.0   815.1    0.00 
 123   21:20   0.00   40.3    95    0.1   232     1.2   815.0    0.00 
 123   21:30   0.00   40.2    95    0.3   203     1.5   815.0    0.00 
 123   21:40   0.00   40.2    95    0.4   192     1.8   815.0    0.00 
 123   21:50   0.00   40.2    95    0.4   186     1.2   815.1    0.00 
 123   22:00   0.00   40.3    95    0.0   224     0.8   815.1    0.00 
 123   22:10   0.00   40.5    96    0.0     0     0.0   815.1    0.00 
 123   22:20   0.00   40.7    96    0.0   224     0.7   815.2    0.00 
 123   22:30   0.00   40.9    95    0.0     0     0.0   815.3    0.00 
 123   22:40   0.00   41.0    95    0.0     0     0.0   815.5    0.00 
 123   22:50   0.00   41.2    95    0.0     0     0.0   815.5    0.00 
 123   23:00   0.00   41.5    94    0.0     0     0.0   815.5    0.00 
 123   23:10   0.00   41.7    94    0.0     0     0.0   815.4    0.00 
 123   23:20   0.00   41.7    94    0.0     0     0.0   815.4    0.00 
 123   23:30   0.00   41.7    94    0.0     0     0.0   815.4    0.00 
 123   23:40   0.00   41.7    94    0.0   224     0.6   815.5    0.00 
 123   23:50   0.00   41.7    95    0.1   224     0.7   815.5    0.00 
 124    0:00   0.00   42.0    94    0.0     0     0.0   815.5    0.00 
 124    0:10   0.00   42.1    94    0.0     0     0.0   815.6    0.00 
 124    0:20   0.00   42.2    94    0.0   181     1.7   815.5    0.00 
 124    0:30   0.00   42.1    94    0.1   174     1.8   815.4    0.00 
 124    0:40   0.00   42.2    94    0.0     0     0.0   815.3    0.00 
 124    0:50   0.00   42.1    94    0.0   174     0.4   815.3    0.00 
 124    1:00   0.00   42.2    94    0.0     0     0.0   815.2    0.00 

Return to Chickering American River Reserve graphs page.


Western Regional Climate Center,wrcc@dri.edu